Time;durP1;ratioP1;P1;durP2;ratioP2;P2;SDS_P1;SDS_P2;PMS_P1;PMS_P2;Temp;Humidity;BMP_temperature;BMP_pressure;BME280_temperature;BME280_humidity;BME280_pressure;Samples;Min_cycle;Max_cycle;Signal;HPM_P1;HPM_P2
2020/12/17 00:00:30;;;;;;;49.30;25.23;;;;;;;5.10;72.93;102285.22;1736340;82;28489;-56
2020/12/17 00:03:00;;;;;;;49.93;24.40;;;;;;;5.07;73.01;102286.67;1739649;82;25894;-56
2020/12/17 00:05:27;;;;;;;51.18;25.57;;;;;;;5.05;73.18;102285.89;1723002;81;25681;-56
2020/12/17 00:07:55;;;;;;;53.75;25.82;;;;;;;5.03;73.12;102281.08;1752820;81;25746;-56
2020/12/17 00:10:23;;;;;;;52.93;25.75;;;;;;;5.00;72.18;102277.59;1752878;81;26465;-56
2020/12/17 00:12:51;;;;;;;51.98;24.80;;;;;;;4.96;72.63;102273.34;1752979;81;27606;-56
2020/12/17 00:15:20;;;;;;;55.10;25.40;;;;;;;4.96;72.91;102268.45;1752851;81;26162;-56
2020/12/17 00:17:51;;;;;;;54.13;24.67;;;;;;;4.97;73.09;102272.86;1752921;81;25681;-56
2020/12/17 00:20:24;;;;;;;53.00;25.37;;;;;;;4.97;73.32;102268.85;1752940;81;25679;-56
2020/12/17 00:22:51;;;;;;;52.90;24.40;;;;;;;4.99;73.54;102279.86;1753036;81;26547;-56
2020/12/17 00:25:20;;;;;;;47.53;24.02;;;;;;;5.02;73.55;102274.86;1752956;81;28526;-56
2020/12/17 00:27:48;;;;;;;54.27;26.62;;;;;;;5.05;73.75;102277.89;1752820;81;26289;-56
2020/12/17 00:30:18;;;;;;;50.50;25.52;;;;;;;5.09;73.81;102274.14;1761956;80;25738;-55
2020/12/17 00:32:46;;;;;;;51.90;23.87;;;;;;;5.13;73.77;102273.09;1725554;80;26511;-56
2020/12/17 00:35:16;;;;;;;47.33;23.40;;;;;;;5.16;73.33;102277.84;1753041;80;26056;-56
2020/12/17 00:37:44;;;;;;;55.63;24.07;;;;;;;5.15;72.24;102280.58;1716834;83;28492;-54
2020/12/17 00:40:14;;;;;;;52.38;24.43;;;;;;;5.10;72.55;102276.77;1759077;80;25629;-56
2020/12/17 00:42:46;;;;;;;52.20;25.95;;;;;;;5.10;73.05;102276.77;1782402;80;25651;-56
2020/12/17 00:45:15;;;;;;;57.27;25.40;;;;;;;5.12;73.10;102274.88;1782192;79;25682;-56
2020/12/17 00:47:44;;;;;;;48.30;23.52;;;;;;;5.10;73.06;102275.44;1745143;81;26161;-55
2020/12/17 00:50:13;;;;;;;44.08;23.30;;;;;;;5.07;73.31;102278.22;1811445;79;27511;-56
2020/12/17 00:52:42;;;;;;;46.42;22.62;;;;;;;5.05;73.20;102275.22;1811355;79;26593;-56
2020/12/17 00:55:12;;;;;;;40.78;22.67;;;;;;;5.03;73.69;102273.92;1811359;79;25681;-55
2020/12/17 00:57:39;;;;;;;47.25;23.95;;;;;;;5.03;73.97;102280.59;1811370;79;25630;-56
2020/12/17 01:00:09;;;;;;;51.18;24.80;;;;;;;4.99;73.97;102270.52;1818328;78;25660;-56
2020/12/17 01:02:37;;;;;;;60.08;28.27;;;;;;;5.00;74.02;102271.41;1830185;78;26817;-56
2020/12/17 01:05:06;;;;;;;53.17;25.35;;;;;;;4.93;74.14;102273.45;1746353;82;25678;-56
2020/12/17 01:07:34;;;;;;;50.00;25.92;;;;;;;4.85;74.02;102271.08;1830129;78;25467;-56
2020/12/17 01:10:04;;;;;;;45.70;24.05;;;;;;;4.84;74.79;102272.01;1746579;81;25703;-56
2020/12/17 01:12:32;;;;;;;49.30;23.65;;;;;;;4.85;74.71;102271.56;1800409;78;25749;-56
2020/12/17 01:15:01;;;;;;;48.78;23.40;;;;;;;4.86;75.12;102266.64;1770515;80;27515;-56
2020/12/17 01:17:28;;;;;;;54.77;25.23;;;;;;;4.91;75.57;102276.64;1770448;81;25687;-56
2020/12/17 01:19:56;;;;;;;48.63;22.85;;;;;;;4.96;75.87;102273.34;1770561;81;25424;-56
2020/12/17 01:22:25;;;;;;;47.75;23.62;;;;;;;5.04;75.96;102269.48;1770641;81;25667;-56
2020/12/17 01:24:52;;;;;;;57.80;25.90;;;;;;;5.13;76.11;102277.10;1770747;79;26551;-56
2020/12/17 01:27:21;;;;;;;47.78;22.32;;;;;;;5.21;76.22;102275.42;1770587;81;27507;-56
2020/12/17 01:29:49;;;;;;;53.28;22.73;;;;;;;5.30;76.25;102278.59;1770527;80;26072;-56
2020/12/17 01:32:17;;;;;;;58.87;23.80;;;;;;;5.36;75.83;102281.92;1770620;80;25792;-56
2020/12/17 01:34:44;;;;;;;48.40;22.25;;;;;;;5.40;75.81;102280.39;1770637;81;25711;-56
2020/12/17 01:37:14;;;;;;;44.88;22.42;;;;;;;5.49;75.88;102281.81;1768959;81;25801;-54
2020/12/17 01:39:43;;;;;;;39.90;21.05;;;;;;;5.58;75.94;102282.76;1770586;81;26881;-56
2020/12/17 01:42:10;;;;;;;36.95;19.17;;;;;;;5.60;75.55;102275.52;1770545;81;26072;-56
2020/12/17 01:44:41;;;;;;;41.88;20.77;;;;;;;5.58;75.13;102284.09;1770557;81;25688;-56
2020/12/17 01:47:10;;;;;;;36.65;19.90;;;;;;;5.54;74.96;102279.80;1791473;78;26420;-56
2020/12/17 01:49:39;;;;;;;38.83;19.35;;;;;;;5.51;74.78;102277.28;1800636;78;25707;-56
2020/12/17 01:52:08;;;;;;;41.68;20.55;;;;;;;5.45;74.26;102273.08;1800621;79;27895;-56
2020/12/17 01:54:36;;;;;;;36.73;19.57;;;;;;;5.38;74.30;102274.73;1800511;79;26209;-56
2020/12/17 01:57:06;;;;;;;35.95;18.82;;;;;;;5.33;74.33;102278.44;1800500;79;25695;-56
2020/12/17 01:59:47;;;;;;;40.10;21.70;;;;;;;5.29;74.32;102280.00;1732307;82;25709;-56
2020/12/17 02:02:22;;;;;;;38.75;19.62;;;;;;;5.25;74.64;102278.38;1789903;79;26137;-56
2020/12/17 02:04:50;;;;;;;38.15;20.15;;;;;;;5.20;74.36;102277.24;1776459;80;28408;-56
2020/12/17 02:07:19;;;;;;;43.92;20.72;;;;;;;5.07;74.07;102279.55;1776369;80;26090;-56
2020/12/17 02:09:47;;;;;;;42.25;22.02;;;;;;;4.98;74.28;102274.11;1776502;80;25733;-56
2020/12/17 02:12:15;;;;;;;42.70;20.55;;;;;;;4.93;74.44;102280.59;1748381;80;25992;-56
2020/12/17 02:14:42;;;;;;;38.42;20.62;;;;;;;4.84;74.61;102277.82;1776559;80;26619;-56
2020/12/17 02:17:11;;;;;;;45.48;20.50;;;;;;;4.79;74.94;102282.00;1776406;80;27547;-56
2020/12/17 02:19:39;;;;;;;38.70;19.17;;;;;;;4.79;75.25;102277.15;1776324;80;25502;-56
2020/12/17 02:22:07;;;;;;;40.50;20.20;;;;;;;4.79;75.38;102283.81;1776500;80;25486;-56
2020/12/17 02:24:34;;;;;;;41.25;22.15;;;;;;;4.79;75.96;102283.34;1776520;80;25715;-56
2020/12/17 02:27:02;;;;;;;40.40;21.00;;;;;;;4.77;75.73;102288.33;1776389;80;25663;-56
2020/12/17 02:29:30;;;;;;;47.43;21.52;;;;;;;4.75;76.07;102283.04;1776285;80;27582;-56
2020/12/17 02:31:58;;;;;;;38.88;19.85;;;;;;;4.78;76.37;102282.08;1776426;80;25644;-56
2020/12/17 02:34:26;;;;;;;44.70;20.43;;;;;;;4.77;76.31;102283.86;1783088;78;25644;-56
2020/12/17 02:36:53;;;;;;;42.58;19.90;;;;;;;4.81;76.72;102289.93;1808644;79;25619;-56
2020/12/17 02:39:21;;;;;;;36.00;19.15;;;;;;;4.86;76.77;102294.16;1839182;78;25871;-55
2020/12/17 02:41:49;;;;;;;37.15;19.20;;;;;;;4.88;76.64;102296.78;1810235;77;27953;-56
2020/12/17 02:44:17;;;;;;;40.35;19.82;;;;;;;4.91;76.64;102294.45;1807152;78;25724;-56
2020/12/17 02:46:46;;;;;;;39.30;18.90;;;;;;;4.97;77.00;102295.08;1819001;78;25697;-56
2020/12/17 02:49:14;;;;;;;42.55;19.42;;;;;;;5.06;76.95;102296.97;1806615;79;26452;-56
2020/12/17 02:51:42;;;;;;;39.33;19.23;;;;;;;5.14;77.01;102295.70;1790030;79;25445;-56
2020/12/17 02:54:10;;;;;;;40.00;18.60;;;;;;;5.16;76.61;102299.18;1776391;80;27622;-56
2020/12/17 02:56:38;;;;;;;42.13;20.68;;;;;;;5.21;76.61;102300.33;1776418;80;25696;-56
2020/12/17 02:59:06;;;;;;;42.55;20.75;;;;;;;5.25;76.61;102292.58;1776321;80;25423;-56
2020/12/17 03:01:34;;;;;;;43.87;20.40;;;;;;;5.31;76.80;102296.80;1778322;80;25655;-56
2020/12/17 03:04:02;;;;;;;40.55;21.27;;;;;;;5.35;76.47;102293.53;1779566;80;25453;-56
2020/12/17 03:06:29;;;;;;;41.02;20.05;;;;;;;5.34;76.15;102303.34;1779405;80;26859;-56
2020/12/17 03:08:57;;;;;;;39.23;19.17;;;;;;;5.34;75.66;102302.02;1779391;80;26220;-56
2020/12/17 03:11:25;;;;;;;42.03;21.17;;;;;;;5.30;75.43;102308.40;1779476;80;25446;-56
2020/12/17 03:13:53;;;;;;;41.68;20.70;;;;;;;5.27;75.43;102306.73;1779523;80;25968;-56
2020/12/17 03:16:20;;;;;;;45.60;20.62;;;;;;;5.23;75.34;102307.81;1779555;80;25505;-56
2020/12/17 03:18:48;;;;;;;43.08;20.23;;;;;;;5.21;75.37;102314.11;1779341;80;27609;-56
2020/12/17 03:21:17;;;;;;;43.20;20.95;;;;;;;5.18;75.37;102317.78;1779362;80;26206;-56
2020/12/17 03:23:45;;;;;;;38.28;19.45;;;;;;;5.14;75.33;102319.71;1779504;80;25643;-56
2020/12/17 03:26:12;;;;;;;40.23;19.55;;;;;;;5.10;75.16;102313.23;1779509;80;26448;-56
2020/12/17 03:28:40;;;;;;;44.33;20.65;;;;;;;5.05;75.16;102313.89;1779485;79;25632;-56
2020/12/17 03:31:08;;;;;;;35.63;19.45;;;;;;;4.99;74.92;102318.53;1779410;80;27474;-56
2020/12/17 03:33:36;;;;;;;39.83;19.75;;;;;;;4.93;75.01;102319.27;1779381;80;26233;-56
2020/12/17 03:36:04;;;;;;;40.90;20.92;;;;;;;4.86;75.00;102319.97;1779511;80;25520;-56
2020/12/17 03:38:34;;;;;;;44.93;21.15;;;;;;;4.82;75.22;102321.00;1778030;80;25732;-56
2020/12/17 03:41:02;;;;;;;44.75;23.57;;;;;;;4.79;75.49;102325.14;1779306;79;25494;-56
2020/12/17 03:43:30;;;;;;;42.65;22.40;;;;;;;4.75;75.63;102324.37;1779260;80;27965;-56
2020/12/17 03:45:59;;;;;;;47.67;24.00;;;;;;;4.72;75.70;102323.62;1779305;78;26193;-56
2020/12/17 03:48:27;;;;;;;45.23;21.97;;;;;;;4.73;75.74;102324.03;1778840;80;25671;-56
2020/12/17 03:50:55;;;;;;;49.10;24.15;;;;;;;4.75;75.69;102320.37;1779360;80;25688;-56
2020/12/17 03:53:23;;;;;;;51.63;26.73;;;;;;;4.72;75.54;102324.95;1779337;80;26040;-56
2020/12/17 03:55:51;;;;;;;42.48;22.87;;;;;;;4.72;75.71;102324.95;1779310;80;27362;-56
2020/12/17 03:58:18;;;;;;;40.55;21.30;;;;;;;4.73;75.83;102319.59;1779246;80;25641;-56
2020/12/17 04:00:46;;;;;;;39.25;19.87;;;;;;;4.73;76.00;102322.70;1776607;80;25640;-56
2020/12/17 04:03:15;;;;;;;39.30;19.70;;;;;;;4.77;76.23;102329.66;1762335;81;25540;-56
2020/12/17 04:05:42;;;;;;;45.95;20.85;;;;;;;4.78;75.87;102332.25;1762561;81;25683;-56
2020/12/17 04:08:10;;;;;;;40.38;20.48;;;;;;;4.80;75.77;102327.73;1762373;81;27514;-56
2020/12/17 04:10:38;;;;;;;43.78;21.15;;;;;;;4.81;75.55;102335.26;1762399;80;25645;-57
2020/12/17 04:13:06;;;;;;;43.45;21.60;;;;;;;4.83;75.92;102336.96;1762454;81;25673;-56
2020/12/17 04:15:33;;;;;;;43.98;22.10;;;;;;;4.89;75.82;102338.48;1762386;81;26272;-56
2020/12/17 04:18:01;;;;;;;48.85;22.37;;;;;;;4.94;75.60;102333.86;1762558;81;26204;-56
2020/12/17 04:20:29;;;;;;;48.83;23.52;;;;;;;4.95;75.22;102339.60;1762433;81;28467;-56
2020/12/17 04:22:57;;;;;;;45.40;22.80;;;;;;;4.96;75.25;102338.67;1762366;81;25633;-56
2020/12/17 04:25:25;;;;;;;49.18;24.85;;;;;;;4.98;75.23;102346.13;1762482;80;25667;-56
2020/12/17 04:27:53;;;;;;;44.95;24.45;;;;;;;5.00;75.27;102342.94;1762492;80;25978;-56
2020/12/17 04:30:21;;;;;;;46.23;23.73;;;;;;;5.03;75.34;102340.61;1761029;80;25991;-56
2020/12/17 04:32:49;;;;;;;46.63;24.55;;;;;;;5.01;74.86;102342.50;1743951;82;27530;-56
2020/12/17 04:35:17;;;;;;;55.80;28.32;;;;;;;4.95;74.82;102355.61;1743883;82;25653;-55
2020/12/17 04:37:45;;;;;;;46.83;23.50;;;;;;;4.94;74.96;102353.86;1743986;82;25451;-56
2020/12/17 04:40:12;;;;;;;45.50;21.85;;;;;;;4.95;74.91;102350.72;1748216;80;25725;-56
2020/12/17 04:42:44;;;;;;;49.50;23.20;;;;;;;4.94;74.83;102352.98;1762472;81;25730;-56
2020/12/17 04:45:13;;;;;;;48.50;24.85;;;;;;;4.91;74.70;102350.45;1762469;81;28579;-56
2020/12/17 04:47:46;;;;;;;65.65;31.00;;;;;;;4.90;74.73;102360.71;1789459;80;25447;-56
2020/12/17 04:50:16;;;;;;;52.83;26.27;;;;;;;4.86;74.51;102357.30;1769880;79;25715;-56
2020/12/17 04:52:44;;;;;;;49.23;24.75;;;;;;;4.82;74.11;102362.33;1767610;81;26490;-56
2020/12/17 04:55:12;;;;;;;46.00;22.37;;;;;;;4.78;73.57;102362.06;1767616;81;26180;-56
2020/12/17 04:57:47;;;;;;;50.90;24.55;;;;;;;4.68;73.47;102362.86;1767501;81;27523;-56
2020/12/17 05:00:15;;;;;;;51.80;23.00;;;;;;;4.60;73.56;102367.17;1767430;81;25740;-56
2020/12/17 05:02:47;;;;;;;45.08;21.77;;;;;;;4.56;73.91;102368.20;1828130;77;25732;-56
2020/12/17 05:05:16;;;;;;;48.15;22.87;;;;;;;4.54;74.30;102365.61;1829331;78;26084;-56
2020/12/17 05:07:43;;;;;;;43.23;22.27;;;;;;;4.56;74.62;102369.53;1748749;82;25777;-56
2020/12/17 05:10:11;;;;;;;48.05;24.40;;;;;;;4.58;74.59;102368.13;1829652;78;28420;-56
2020/12/17 05:12:39;;;;;;;47.43;22.37;;;;;;;4.59;74.84;102370.77;1736022;82;25780;-56
2020/12/17 05:15:07;;;;;;;48.73;23.85;;;;;;;4.65;74.91;102372.33;1705565;84;25646;-56
2020/12/17 05:17:35;;;;;;;44.25;24.15;;;;;;;4.63;74.37;102373.70;1705554;83;26469;-56
2020/12/17 05:20:06;;;;;;;49.18;22.85;;;;;;;4.63;74.93;102375.03;1705563;84;25808;-57
2020/12/17 05:22:36;;;;;;;46.88;22.17;;;;;;;4.66;74.68;102383.41;1762258;81;27614;-56
2020/12/17 05:25:04;;;;;;;46.58;23.42;;;;;;;4.65;74.47;102386.52;1763050;80;25652;-56
2020/12/17 05:27:31;;;;;;;48.08;23.55;;;;;;;4.60;74.11;102379.17;1765226;81;25707;-56
2020/12/17 05:30:01;;;;;;;55.17;25.40;;;;;;;4.60;74.37;102388.50;1743652;81;25984;-56
2020/12/17 05:32:29;;;;;;;57.93;25.32;;;;;;;4.59;74.63;102388.09;1765105;81;26549;-56
2020/12/17 05:35:03;;;;;;;52.17;24.87;;;;;;;4.66;75.06;102383.41;1765031;81;27974;-57
2020/12/17 05:37:31;;;;;;;49.53;25.62;;;;;;;4.70;75.50;102381.89;1765058;81;25763;-56
2020/12/17 05:40:03;;;;;;;53.65;25.20;;;;;;;4.80;74.90;102383.73;1764548;81;25749;-56
2020/12/17 05:42:31;;;;;;;48.28;24.23;;;;;;;4.78;74.21;102380.25;1762620;80;25749;-56
2020/12/17 05:44:58;;;;;;;55.48;28.67;;;;;;;4.71;73.70;102372.09;1762451;81;25740;-56
2020/12/17 05:47:27;;;;;;;57.17;28.40;;;;;;;4.66;74.01;102381.59;1793108;78;28341;-56
2020/12/17 05:49:55;;;;;;;56.90;27.60;;;;;;;4.62;73.82;102378.63;1799852;79;26374;-56
2020/12/17 05:52:25;;;;;;;53.80;28.32;;;;;;;4.56;73.80;102380.20;1799964;79;25761;-56
2020/12/17 05:54:59;;;;;;;57.62;28.38;;;;;;;4.53;74.27;102380.30;1799846;79;25730;-56
2020/12/17 05:57:28;;;;;;;59.10;28.57;;;;;;;4.51;74.12;102376.84;1799836;79;26135;-56
2020/12/17 05:59:59;;;;;;;61.98;29.40;;;;;;;4.45;74.03;102379.27;1799880;79;28891;-56
2020/12/17 06:02:35;;;;;;;63.15;31.42;;;;;;;4.42;73.78;102390.52;1775914;79;25650;-56
2020/12/17 06:05:13;;;;;;;67.70;30.92;;;;;;;4.35;74.14;102380.05;1762545;81;25906;-55
2020/12/17 06:07:49;;;;;;;65.78;33.05;;;;;;;4.32;74.29;102386.84;1762377;81;25649;-56
2020/12/17 06:10:28;;;;;;;63.30;30.77;;;;;;;4.31;74.37;102387.77;1761914;81;26330;-56
2020/12/17 06:13:02;;;;;;;65.20;30.62;;;;;;;4.27;74.44;102390.59;1783848;79;28425;-56
2020/12/17 06:15:32;;;;;;;66.15;33.18;;;;;;;4.25;74.61;102397.33;1793804;79;25714;-56
2020/12/17 06:18:03;;;;;;;66.87;33.88;;;;;;;4.22;74.79;102403.61;1793920;79;25623;-56
2020/12/17 06:20:33;;;;;;;88.35;39.95;;;;;;;4.25;75.00;102397.33;1793944;79;25640;-56
2020/12/17 06:23:05;;;;;;;70.57;31.62;;;;;;;4.29;75.11;102392.75;1784417;79;25522;-56
2020/12/17 06:25:36;;;;;;;68.67;33.00;;;;;;;4.33;75.35;102399.25;1762525;81;28505;-56
2020/12/17 06:28:04;;;;;;;68.95;34.03;;;;;;;4.38;75.62;102404.41;1762463;81;25732;-56
2020/12/17 06:30:34;;;;;;;69.05;35.35;;;;;;;4.46;75.78;102405.44;1761868;81;25674;-55
2020/12/17 06:33:05;;;;;;;59.50;28.85;;;;;;;4.50;75.79;102416.41;1762492;81;26391;-57
2020/12/17 06:35:53;;;;;;;47.10;22.27;;;;;;;4.55;75.85;102415.77;1762509;81;25451;-56
2020/12/17 06:38:26;;;;;;;44.80;22.20;;;;;;;4.57;75.50;102421.92;1764111;79;27645;-56
2020/12/17 06:40:55;;;;;;;45.95;22.62;;;;;;;4.59;75.66;102420.08;1779017;80;25700;-56
2020/12/17 06:43:38;;;;;;;56.35;25.40;;;;;;;4.64;75.72;102415.91;1725036;83;25791;-56
2020/12/17 06:46:28;;;;;;;54.03;24.53;;;;;;;4.68;75.52;102423.73;1709694;82;25625;-56
2020/12/17 06:48:58;;;;;;;55.17;24.77;;;;;;;4.70;75.65;102424.55;1698979;83;25767;-58
2020/12/17 06:51:33;;;;;;;50.17;24.25;;;;;;;4.77;75.83;102423.84;1705363;84;28442;-58
2020/12/17 06:54:18;;;;;;;55.92;27.25;;;;;;;4.82;75.88;102421.88;1760896;81;25685;-58
2020/12/17 06:57:10;;;;;;;54.13;26.15;;;;;;;4.90;76.03;102430.91;1760363;81;25720;-58
2020/12/17 06:59:41;;;;;;;55.63;25.82;;;;;;;4.95;75.76;102434.28;1760760;80;25536;-58
2020/12/17 07:02:10;;;;;;;51.45;25.82;;;;;;;4.95;75.04;102435.61;1762183;80;26215;-55
2020/12/17 07:04:43;;;;;;;50.25;24.85;;;;;;;4.94;74.99;102431.20;1797322;78;27517;-55
2020/12/17 07:07:23;;;;;;;51.80;25.95;;;;;;;4.93;74.66;102432.13;1800204;79;25979;-55
2020/12/17 07:09:55;;;;;;;48.20;24.87;;;;;;;4.92;74.66;102430.39;1800146;79;25797;-55
2020/12/17 07:12:40;;;;;;;55.23;24.17;;;;;;;4.92;74.60;102430.39;1799262;79;26562;-56
2020/12/17 07:15:35;;;;;;;53.78;24.72;;;;;;;4.92;74.46;102434.39;1799072;79;25711;-56
2020/12/17 07:18:25;;;;;;;53.08;24.37;;;;;;;4.88;74.18;102438.56;1798871;79;27507;-57
2020/12/17 07:21:06;;;;;;;49.88;25.20;;;;;;;4.85;74.31;102440.89;1798410;79;25706;-56
2020/12/17 07:23:36;;;;;;;39.65;20.10;;;;;;;4.84;74.22;102440.00;1768205;81;25677;-57
2020/12/17 07:26:15;;;;;;;47.45;22.00;;;;;;;4.80;73.50;102443.73;1793898;78;25762;-56
2020/12/17 07:28:54;;;;;;;41.95;19.00;;;;;;;4.76;73.57;102439.42;1800254;79;25627;-57
2020/12/17 07:31:26;;;;;;;44.38;21.60;;;;;;;4.70;73.40;102439.22;1783848;79;26434;-57
2020/12/17 07:33:55;;;;;;;46.60;21.25;;;;;;;4.67;73.62;102439.31;1768643;80;26169;-57
2020/12/17 07:36:47;;;;;;;52.53;22.25;;;;;;;4.67;73.57;102441.09;1768691;81;25731;-57
2020/12/17 07:39:27;;;;;;;51.75;20.70;;;;;;;4.68;73.75;102434.40;1833213;78;25344;-55
2020/12/17 07:42:04;;;;;;;42.60;21.82;;;;;;;4.62;73.69;102431.08;1803704;79;26059;-57
2020/12/17 07:44:36;;;;;;;43.83;21.65;;;;;;;4.55;73.81;102429.09;1803877;79;27533;-57
2020/12/17 07:47:20;;;;;;;45.55;20.52;;;;;;;4.53;73.94;102429.60;1803815;79;25729;-55
2020/12/17 07:49:48;;;;;;;;;;;;;;;4.51;74.08;102434.15;1806284;79;26330;-57
2020/12/17 07:52:34;;;;;;;40.92;21.65;;;;;;;4.53;74.25;102437.16;1803742;79;25764;-57
2020/12/17 07:55:03;;;;;;;44.40;19.70;;;;;;;4.54;74.34;102436.23;1803580;79;25700;-57
2020/12/17 07:57:31;;;;;;;42.30;19.10;;;;;;;4.57;74.16;102435.72;1803730;79;27540;-57
2020/12/17 07:59:58;;;;;;;41.45;18.87;;;;;;;4.60;74.03;102438.25;1735442;82;25536;-57
2020/12/17 08:02:27;;;;;;;43.95;21.23;;;;;;;4.62;73.96;102443.93;1735402;82;25754;-57
2020/12/17 08:04:56;;;;;;;44.88;22.25;;;;;;;4.66;74.11;102444.23;1735355;82;25724;-57
2020/12/17 08:07:25;;;;;;;52.90;25.92;;;;;;;4.68;74.26;102440.17;1735426;82;26167;-57
2020/12/17 08:10:00;;;;;;;58.33;28.80;;;;;;;4.72;74.73;102439.14;1735399;82;27976;-57
2020/12/17 08:12:28;;;;;;;57.13;25.15;;;;;;;4.80;75.30;102438.39;1735959;82;25759;-57
2020/12/17 08:15:09;;;;;;;53.08;25.30;;;;;;;4.91;75.73;102431.79;1757231;81;25421;-57
2020/12/17 08:17:36;;;;;;;52.10;25.48;;;;;;;4.99;75.58;102437.70;1731966;81;25729;-57
2020/12/17 08:20:04;;;;;;;53.70;23.57;;;;;;;5.01;75.48;102434.04;1740168;81;25702;-57
2020/12/17 08:22:34;;;;;;;47.90;24.18;;;;;;;5.01;75.35;102423.37;1711302;83;27618;-57
2020/12/17 08:25:05;;;;;;;48.63;23.62;;;;;;;5.03;75.37;102417.97;1684017;81;26064;-57
2020/12/17 08:27:34;;;;;;;49.60;24.15;;;;;;;5.06;75.53;102422.34;1726268;82;25654;-57
2020/12/17 08:30:04;;;;;;;54.53;26.17;;;;;;;5.06;75.32;102423.19;1726734;82;26106;-57
2020/12/17 08:32:32;;;;;;;49.00;24.50;;;;;;;5.10;75.34;102416.82;1755332;81;25759;-57
2020/12/17 08:35:00;;;;;;;45.65;22.22;;;;;;;5.17;75.63;102420.98;1732049;82;27534;-57
2020/12/17 08:37:28;;;;;;;44.95;21.73;;;;;;;5.24;75.67;102421.61;1726619;82;25777;-57
2020/12/17 08:40:05;;;;;;;48.02;22.27;;;;;;;5.30;75.48;102420.02;1729086;82;25876;-57
2020/12/17 08:42:37;;;;;;;42.60;20.97;;;;;;;5.36;75.15;102416.70;1724852;82;26245;-57
2020/12/17 08:45:12;;;;;;;43.35;21.60;;;;;;;5.33;74.71;102409.69;1731416;82;25656;-57
2020/12/17 08:47:42;;;;;;;41.42;20.88;;;;;;;5.31;74.28;102413.77;1740714;82;28565;-56
2020/12/17 08:50:10;;;;;;;43.73;21.12;;;;;;;5.29;74.22;102415.61;1727131;80;26564;-57
2020/12/17 08:52:38;;;;;;;42.08;20.77;;;;;;;5.27;74.25;102415.28;1730391;82;25922;-59
2020/12/17 08:55:09;;;;;;;43.52;20.32;;;;;;;5.29;74.47;102414.28;1727692;82;25779;-57
2020/12/17 08:57:38;;;;;;;57.40;28.15;;;;;;;5.36;74.64;102411.36;1718084;82;25806;-57
2020/12/17 09:00:19;;;;;;;63.25;29.98;;;;;;;5.37;74.28;102409.98;1714204;82;27537;-58
2020/12/17 09:02:52;;;;;;;54.93;28.27;;;;;;;5.36;74.24;102412.24;1734053;82;25727;-57
2020/12/17 09:05:20;;;;;;;65.20;31.73;;;;;;;5.35;73.77;102413.17;1753706;80;25714;-57
2020/12/17 09:07:52;;;;;;;65.32;32.28;;;;;;;5.30;74.14;102412.47;1729434;80;25628;-57
2020/12/17 09:10:20;;;;;;;73.15;34.13;;;;;;;5.27;74.12;102407.27;1714333;82;25849;-57
2020/12/17 09:12:56;;;;;;;79.80;36.60;;;;;;;5.25;74.30;102419.80;1714013;83;27375;-57
2020/12/17 09:15:28;;;;;;;67.22;30.02;;;;;;;5.21;74.25;102413.72;1718989;82;25697;-57
2020/12/17 09:18:10;;;;;;;65.62;31.80;;;;;;;5.16;74.11;102408.56;1728143;82;25714;-58
2020/12/17 09:20:38;;;;;;;65.70;32.98;;;;;;;5.13;74.04;102406.01;1728252;80;25617;-57
2020/12/17 09:23:08;;;;;;;62.90;31.52;;;;;;;5.13;74.41;102400.67;1717506;82;26536;-58
2020/12/17 09:25:36;;;;;;;63.95;30.00;;;;;;;5.17;74.84;102399.64;1714183;82;28003;-57
2020/12/17 09:28:04;;;;;;;54.65;27.55;;;;;;;5.19;74.61;102398.23;1714080;83;25651;-57
2020/12/17 09:30:33;;;;;;;53.02;26.50;;;;;;;5.19;74.89;102400.90;1714062;82;25629;-57
2020/12/17 09:33:03;;;;;;;52.35;26.65;;;;;;;5.21;75.30;102407.50;1714006;83;25776;-57
2020/12/17 09:35:36;;;;;;;56.53;28.75;;;;;;;5.24;75.05;102413.61;1717930;82;26159;-57
2020/12/17 09:38:09;;;;;;;60.73;30.02;;;;;;;5.24;74.98;102411.39;1732603;81;28923;-57
2020/12/17 09:40:44;;;;;;;55.70;29.55;;;;;;;5.26;75.21;102401.05;1750102;81;26088;-57
2020/12/17 09:43:16;;;;;;;57.53;28.15;;;;;;;5.30;75.29;102404.02;1731581;82;25719;-57
2020/12/17 09:45:49;;;;;;;63.15;29.72;;;;;;;5.41;75.61;102404.91;1742484;81;25793;-57
2020/12/17 09:48:22;;;;;;;63.23;30.60;;;;;;;5.52;75.52;102409.80;1745836;81;25707;-57
2020/12/17 09:51:07;;;;;;;57.62;29.18;;;;;;;5.63;75.55;102398.70;1743546;81;27811;-57
2020/12/17 09:53:39;;;;;;;50.45;26.15;;;;;;;5.67;74.90;102400.77;1753171;81;25723;-58
2020/12/17 09:56:18;;;;;;;55.17;25.20;;;;;;;5.70;74.93;102404.17;1748199;81;25781;-56
2020/12/17 09:58:46;;;;;;;51.85;24.55;;;;;;;5.74;74.87;102400.42;1755032;81;26183;-56
2020/12/17 10:01:15;;;;;;;51.02;24.72;;;;;;;5.80;74.51;102400.19;1756025;81;25739;-57
2020/12/17 10:03:42;;;;;;;52.53;25.12;;;;;;;5.76;73.50;102395.89;1756649;81;28405;-57
2020/12/17 10:06:12;;;;;;;48.17;24.10;;;;;;;5.72;73.64;102396.09;1760198;81;26127;-56
2020/12/17 10:08:39;;;;;;;52.35;24.85;;;;;;;5.69;73.54;102393.09;1752285;81;25749;-56
2020/12/17 10:11:09;;;;;;;48.60;23.60;;;;;;;5.68;73.66;102394.02;1748774;81;25681;-57
2020/12/17 10:13:37;;;;;;;54.55;26.00;;;;;;;5.69;73.20;102390.91;1748040;81;25711;-57
2020/12/17 10:16:05;;;;;;;46.88;23.67;;;;;;;5.65;73.17;102388.80;1752976;81;28637;-57
2020/12/17 10:18:33;;;;;;;50.55;25.23;;;;;;;5.60;72.58;102394.33;1738416;81;26575;-57
2020/12/17 10:21:02;;;;;;;51.55;24.75;;;;;;;5.51;72.86;102394.73;1731524;82;25748;-57
2020/12/17 10:23:29;;;;;;;49.38;24.32;;;;;;;5.48;73.06;102385.52;1742880;81;25440;-57
2020/12/17 10:25:58;;;;;;;47.98;24.90;;;;;;;5.46;73.25;102380.25;1760425;81;26409;-57
2020/12/17 10:28:25;;;;;;;51.98;25.20;;;;;;;5.43;73.29;102380.81;1743594;80;28480;-57
2020/12/17 10:30:55;;;;;;;46.77;23.57;;;;;;;5.36;73.24;102377.55;1744381;81;25703;-57
2020/12/17 10:33:23;;;;;;;59.10;25.55;;;;;;;5.34;72.92;102375.40;1751974;81;25743;-57
2020/12/17 10:35:51;;;;;;;51.10;24.92;;;;;;;5.30;73.28;102376.00;1740259;80;25752;-57
2020/12/17 10:38:19;;;;;;;49.35;25.40;;;;;;;5.36;73.60;102375.33;1736443;81;25726;-57
2020/12/17 10:40:47;;;;;;;48.63;23.30;;;;;;;5.42;73.84;102373.77;1714701;82;28560;-57
2020/12/17 10:43:15;;;;;;;52.62;26.93;;;;;;;5.44;73.97;102372.77;1717409;82;25598;-57
2020/12/17 10:45:42;;;;;;;50.90;25.52;;;;;;;5.48;74.11;102370.83;1726055;80;25732;-56
2020/12/17 10:48:12;;;;;;;53.70;26.57;;;;;;;5.52;73.61;102375.58;1724179;82;25693;-56
2020/12/17 10:50:40;;;;;;;48.65;24.12;;;;;;;5.53;73.88;102371.98;1714124;83;25508;-56
2020/12/17 10:53:08;;;;;;;46.40;24.60;;;;;;;5.58;74.20;102368.19;1713895;83;27540;-56
2020/12/17 10:55:35;;;;;;;45.50;23.38;;;;;;;5.62;73.99;102366.25;1736690;82;25774;-56
2020/12/17 10:58:05;;;;;;;48.17;23.75;;;;;;;5.64;74.07;102366.58;1718324;82;25617;-56
2020/12/17 11:00:33;;;;;;;47.83;23.40;;;;;;;5.71;74.08;102359.19;1718434;83;25655;-56
2020/12/17 11:03:02;;;;;;;51.42;24.45;;;;;;;5.70;74.07;102360.12;1718560;82;25651;-56
2020/12/17 11:05:30;;;;;;;49.05;23.15;;;;;;;5.70;73.50;102363.23;1739912;80;27604;-56
2020/12/17 11:07:58;;;;;;;45.30;23.87;;;;;;;5.65;73.28;102356.75;1748250;82;25589;-56
2020/12/17 11:10:26;;;;;;;48.28;24.02;;;;;;;5.61;72.69;102362.70;1742000;82;25810;-56
2020/12/17 11:12:54;;;;;;;47.48;22.58;;;;;;;5.53;72.77;102362.16;1738419;82;26155;-56
2020/12/17 11:15:22;;;;;;;49.38;23.50;;;;;;;5.52;73.04;102360.41;1726329;82;25456;-56
2020/12/17 11:17:51;;;;;;;48.40;24.02;;;;;;;5.54;73.01;102359.89;1738486;82;27403;-56
2020/12/17 11:20:19;;;;;;;45.40;23.22;;;;;;;5.53;73.10;102354.14;1732554;82;26415;-56
2020/12/17 11:22:46;;;;;;;51.37;24.25;;;;;;;5.51;73.13;102356.03;1748358;82;25687;-55
2020/12/17 11:25:15;;;;;;;46.30;23.32;;;;;;;5.51;73.06;102356.48;1748149;81;25715;-56
2020/12/17 11:27:43;;;;;;;48.95;23.65;;;;;;;5.49;73.04;102353.89;1748347;82;26134;-55
2020/12/17 11:30:12;;;;;;;46.63;23.83;;;;;;;5.47;73.09;102355.27;1748331;82;28512;-56